Time;durP1;ratioP1;P1;durP2;ratioP2;P2;SDS_P1;SDS_P2;PMS_P1;PMS_P2;Temp;Humidity;BMP_temperature;BMP_pressure;BME280_temperature;BME280_humidity;BME280_pressure;Samples;Min_cycle;Max_cycle;Signal;HPM_P1;HPM_P2
2022/09/17 00:00:48;;;;;;;1.58;0.88;;;21.20;70.10;;;;;;5070917;28;20396;-68
2022/09/17 00:03:14;;;;;;;1.65;0.85;;;21.20;70.10;;;;;;5070415;28;20024;-68
2022/09/17 00:05:40;;;;;;;2.25;0.70;;;21.20;70.10;;;;;;5072631;28;20044;-68
2022/09/17 00:08:06;;;;;;;2.10;0.80;;;21.20;70.00;;;;;;5115376;28;20030;-68
2022/09/17 00:10:32;;;;;;;0.88;0.57;;;21.20;70.10;;;;;;5116119;28;20016;-68
2022/09/17 00:12:58;;;;;;;1.23;0.70;;;21.20;70.10;;;;;;5097701;28;20050;-68
2022/09/17 00:15:24;;;;;;;1.65;0.88;;;21.30;70.20;;;;;;5114912;28;20472;-68
2022/09/17 00:17:54;;;;;;;2.83;0.50;;;21.20;70.10;;;;;;5115982;28;20022;-68
2022/09/17 00:20:20;;;;;;;2.25;0.70;;;21.20;70.10;;;;;;5116208;28;20035;-68
2022/09/17 00:22:46;;;;;;;0.88;0.45;;;21.20;70.20;;;;;;5116095;28;20558;-68
2022/09/17 00:25:11;;;;;;;1.73;0.68;;;21.20;70.20;;;;;;5115848;28;20024;-68
2022/09/17 00:27:37;;;;;;;0.93;0.43;;;21.20;70.30;;;;;;5115646;28;20028;-68
2022/09/17 00:30:03;;;;;;;0.52;0.40;;;21.30;70.50;;;;;;5115954;28;20023;-69
2022/09/17 00:32:29;;;;;;;2.70;0.70;;;21.20;70.40;;;;;;5114388;28;20399;-68
2022/09/17 00:34:55;;;;;;;1.00;0.57;;;21.30;70.40;;;;;;5114520;28;20107;-69
2022/09/17 00:37:21;;;;;;;1.00;0.57;;;21.20;70.40;;;;;;5115894;28;20016;-69
2022/09/17 00:39:46;;;;;;;5.03;0.60;;;21.20;70.40;;;;;;5114257;28;20373;-69
2022/09/17 00:42:13;;;;;;;1.48;0.60;;;21.20;70.40;;;;;;5114295;28;20027;-68
2022/09/17 00:44:53;;;;;;;2.13;0.38;;;21.30;70.50;;;;;;5114456;28;20028;-68
2022/09/17 00:47:21;;;;;;;0.90;0.57;;;21.30;70.40;;;;;;5097522;28;20051;-68
2022/09/17 00:49:55;;;;;;;2.00;0.60;;;21.30;70.50;;;;;;5115231;28;20102;-69
2022/09/17 00:52:35;;;;;;;0.73;0.45;;;21.30;70.50;;;;;;5098185;28;20102;-68
2022/09/17 00:55:22;;;;;;;2.45;0.80;;;21.30;70.50;;;;;;5097772;28;20028;-68
2022/09/17 00:57:49;;;;;;;2.90;0.60;;;21.30;70.50;;;;;;5095885;28;20088;-68
2022/09/17 01:00:15;;;;;;;0.85;0.50;;;21.30;70.50;;;;;;5073486;28;20017;-68
2022/09/17 01:02:41;;;;;;;1.70;0.73;;;21.30;70.50;;;;;;5073324;28;20033;-68
2022/09/17 01:05:07;;;;;;;0.70;0.52;;;21.30;70.50;;;;;;5073310;28;20032;-69
2022/09/17 01:07:53;;;;;;;2.40;0.73;;;21.30;70.50;;;;;;5104975;28;20020;-69
2022/09/17 01:10:21;;;;;;;3.03;0.70;;;21.30;70.40;;;;;;5113910;28;20433;-68
2022/09/17 01:13:11;;;;;;;0.57;0.43;;;21.30;70.50;;;;;;5114544;28;20020;-69
2022/09/17 01:15:56;;;;;;;1.13;0.68;;;21.20;70.30;;;;;;5114880;28;20111;-69
2022/09/17 01:18:46;;;;;;;2.78;0.50;;;21.30;70.40;;;;;;5113140;28;20020;-69
2022/09/17 01:21:48;;;;;;;1.23;0.40;;;21.20;70.40;;;;;;5098405;28;20018;-68
2022/09/17 01:24:47;;;;;;;1.92;0.70;;;21.30;70.50;;;;;;5114757;28;20023;-68
2022/09/17 01:27:16;;;;;;;1.42;0.80;;;21.30;70.50;;;;;;5114569;28;20034;-69
2022/09/17 01:29:47;;;;;;;2.70;1.10;;;21.30;70.50;;;;;;5114513;28;20117;-68
2022/09/17 01:32:23;;;;;;;1.00;0.50;;;21.30;70.50;;;;;;5114694;28;20031;-69
2022/09/17 01:35:10;;;;;;;1.83;0.70;;;21.30;70.50;;;;;;5097212;28;20076;-68
2022/09/17 01:37:42;;;;;;;3.40;0.80;;;21.30;70.50;;;;;;5097444;28;20369;-68
2022/09/17 01:40:29;;;;;;;3.63;0.50;;;21.30;70.50;;;;;;5114239;28;20024;-68
2022/09/17 01:42:54;;;;;;;3.90;0.50;;;21.30;70.40;;;;;;5114505;28;20027;-69
2022/09/17 01:45:28;;;;;;;1.85;0.70;;;21.30;70.50;;;;;;5114437;28;20042;-69
2022/09/17 01:47:57;;;;;;;1.83;0.70;;;21.30;70.40;;;;;;5114493;28;20587;-68
2022/09/17 01:50:32;;;;;;;1.77;0.70;;;21.30;70.40;;;;;;5112951;28;20040;-69
2022/09/17 01:52:58;;;;;;;1.75;0.63;;;21.30;70.40;;;;;;5079403;28;20450;-68
2022/09/17 01:55:27;;;;;;;0.95;0.73;;;21.30;70.40;;;;;;5095913;28;20509;-69
2022/09/17 01:58:02;;;;;;;2.00;0.52;;;21.30;70.40;;;;;;5075613;28;20507;-69
2022/09/17 02:00:28;;;;;;;12.82;1.20;;;21.30;70.40;;;;;;5072349;28;20024;-69
2022/09/17 02:03:01;;;;;;;1.70;0.63;;;21.30;70.40;;;;;;5072166;28;20396;-69
2022/09/17 02:05:55;;;;;;;2.53;0.70;;;21.30;70.40;;;;;;5072186;28;20021;-69
2022/09/17 02:08:50;;;;;;;2.70;0.65;;;21.30;70.50;;;;;;5069794;28;20040;-74
2022/09/17 02:11:16;;;;;;;1.52;0.55;;;21.20;70.40;;;;;;5058984;28;20043;-74
2022/09/17 02:13:57;;;;;;;2.42;0.63;;;21.30;70.50;;;;;;5071882;28;20384;-74
2022/09/17 02:16:25;;;;;;;1.35;0.70;;;21.20;70.40;;;;;;5072997;28;20025;-74
2022/09/17 02:19:00;;;;;;;2.65;0.50;;;21.20;70.40;;;;;;5071957;28;20029;-73
2022/09/17 02:21:51;;;;;;;3.85;0.50;;;21.20;70.40;;;;;;5073059;28;20435;-74
2022/09/17 02:24:22;;;;;;;1.65;0.47;;;21.20;70.40;;;;;;5072706;28;20025;-73
2022/09/17 02:27:27;;;;;;;1.95;0.70;;;21.20;70.40;;;;;;5071780;28;20021;-74
2022/09/17 02:29:52;;;;;;;2.75;0.77;;;21.20;70.40;;;;;;5083896;28;20029;-74
2022/09/17 02:32:18;;;;;;;1.75;0.57;;;21.20;70.40;;;;;;5071690;28;20035;-74
2022/09/17 02:34:43;;;;;;;3.22;0.60;;;21.20;70.40;;;;;;5071555;28;20024;-74
2022/09/17 02:37:09;;;;;;;1.95;0.40;;;21.20;70.50;;;;;;5054997;28;20439;-74
2022/09/17 02:39:35;;;;;;;1.17;0.60;;;21.20;70.50;;;;;;5054608;28;20028;-74
2022/09/17 02:42:38;;;;;;;1.65;0.50;;;21.20;70.40;;;;;;5071465;28;20183;-74
2022/09/17 02:45:19;;;;;;;2.78;0.60;;;21.20;70.40;;;;;;5072547;28;20024;-74
2022/09/17 02:48:16;;;;;;;2.70;0.40;;;21.20;70.50;;;;;;5071363;28;20021;-74
2022/09/17 02:51:17;;;;;;;1.50;0.60;;;21.20;70.50;;;;;;5072207;28;20052;-74
2022/09/17 02:54:10;;;;;;;0.70;0.50;;;21.20;70.50;;;;;;5071334;28;20092;-74
2022/09/17 02:57:07;;;;;;;3.63;0.60;;;21.20;70.50;;;;;;5071241;28;20063;-74
2022/09/17 03:00:02;;;;;;;2.33;0.50;;;21.20;70.50;;;;;;5071353;28;20403;-74
2022/09/17 03:02:31;;;;;;;1.02;0.60;;;21.20;70.50;;;;;;5072412;28;20021;-74
2022/09/17 03:04:56;;;;;;;1.50;0.68;;;21.20;70.50;;;;;;5071053;28;20059;-74
2022/09/17 03:07:22;;;;;;;1.02;0.50;;;21.20;70.50;;;;;;5098402;28;20031;-74
2022/09/17 03:09:48;;;;;;;2.45;0.80;;;21.20;70.50;;;;;;5094808;28;20027;-74
2022/09/17 03:12:14;;;;;;;3.25;0.80;;;21.10;71.50;;;;;;5111744;28;20130;-74
2022/09/17 03:14:39;;;;;;;1.63;0.75;;;21.20;70.50;;;;;;5111564;28;20024;-74
2022/09/17 03:17:05;;;;;;;1.02;0.57;;;21.10;70.50;;;;;;5111663;28;20407;-74
2022/09/17 03:19:31;;;;;;;1.27;0.40;;;21.10;70.50;;;;;;5111798;28;20081;-73
2022/09/17 03:21:57;;;;;;;2.10;0.50;;;21.20;70.50;;;;;;5112258;28;20023;-73
2022/09/17 03:24:22;;;;;;;0.60;0.40;;;21.10;70.50;;;;;;5111439;28;20024;-73
2022/09/17 03:26:48;;;;;;;1.90;0.60;;;21.10;70.60;;;;;;5112852;28;20038;-74
2022/09/17 03:29:14;;;;;;;2.20;0.65;;;21.20;70.60;;;;;;5112707;28;20035;-74
2022/09/17 03:31:40;;;;;;;2.90;0.88;;;21.10;70.60;;;;;;5112383;28;20063;-73
2022/09/17 03:34:06;;;;;;;3.22;0.85;;;21.10;70.50;;;;;;5112646;28;20015;-74
2022/09/17 03:36:32;;;;;;;1.88;0.63;;;21.10;70.60;;;;;;5112442;28;20026;-74
2022/09/17 03:38:57;;;;;;;0.93;0.60;;;21.10;70.60;;;;;;5111417;28;20156;-74
2022/09/17 03:41:23;;;;;;;1.10;0.60;;;21.10;70.60;;;;;;5114771;28;20020;-74
2022/09/17 03:43:49;;;;;;;1.75;0.73;;;21.10;70.60;;;;;;5116618;28;20024;-74
2022/09/17 03:46:15;;;;;;;2.47;0.77;;;21.10;70.60;;;;;;5115710;28;20026;-74
2022/09/17 03:48:40;;;;;;;0.82;0.40;;;21.10;70.60;;;;;;5116472;28;20073;-74
2022/09/17 03:51:06;;;;;;;1.13;0.60;;;21.10;70.80;;;;;;5115222;28;20562;-74
2022/09/17 03:53:32;;;;;;;1.33;0.50;;;21.10;70.60;;;;;;5098487;28;20019;-74
2022/09/17 03:55:59;;;;;;;1.13;0.57;;;21.10;70.60;;;;;;5116411;28;20019;-74
2022/09/17 03:58:25;;;;;;;1.23;0.60;;;21.10;70.60;;;;;;5102302;28;20016;-74
2022/09/17 04:00:52;;;;;;;2.72;0.60;;;21.10;70.60;;;;;;5075889;28;20039;-75
2022/09/17 04:03:18;;;;;;;1.67;0.52;;;21.10;70.60;;;;;;5074566;28;20104;-74
2022/09/17 04:05:43;;;;;;;0.93;0.50;;;21.10;70.60;;;;;;5074026;28;20116;-74
2022/09/17 04:08:09;;;;;;;1.25;0.47;;;21.10;70.70;;;;;;5116112;28;20102;-75
2022/09/17 04:10:35;;;;;;;5.40;0.90;;;21.10;70.70;;;;;;5115116;28;20406;-74
2022/09/17 04:13:00;;;;;;;0.73;0.40;;;21.10;70.70;;;;;;5115992;28;20435;-74
2022/09/17 04:15:26;;;;;;;1.45;0.63;;;21.10;70.70;;;;;;5116268;28;20559;-74
2022/09/17 04:17:56;;;;;;;1.58;0.68;;;21.10;70.70;;;;;;5115785;28;20024;-74
2022/09/17 04:20:22;;;;;;;1.73;0.70;;;21.10;70.70;;;;;;5114872;28;20027;-74
2022/09/17 04:22:48;;;;;;;2.42;0.50;;;21.10;70.70;;;;;;5116037;28;20459;-75
2022/09/17 04:25:14;;;;;;;4.30;0.70;;;21.10;70.70;;;;;;5116075;28;20035;-74
2022/09/17 04:27:39;;;;;;;1.30;0.52;;;21.10;70.70;;;;;;5094997;28;20016;-75
2022/09/17 04:30:05;;;;;;;0.50;0.30;;;21.10;70.80;;;;;;5094324;28;20024;-75
2022/09/17 04:32:31;;;;;;;2.22;0.80;;;21.10;70.80;;;;;;5095098;28;20433;-75
2022/09/17 04:34:57;;;;;;;7.25;0.80;;;21.10;70.90;;;;;;5095115;28;20024;-74
2022/09/17 04:37:24;;;;;;;1.73;0.40;;;21.10;70.90;;;;;;5095548;28;20499;-75
2022/09/17 04:39:50;;;;;;;0.82;0.60;;;21.10;70.90;;;;;;5095177;28;20102;-75
2022/09/17 04:42:16;;;;;;;2.03;0.60;;;21.10;70.90;;;;;;5095138;28;20021;-75
2022/09/17 04:44:42;;;;;;;2.05;0.70;;;21.10;70.90;;;;;;5094136;28;20050;-75
2022/09/17 04:47:07;;;;;;;1.15;0.50;;;21.10;71.00;;;;;;5094969;28;20127;-75
2022/09/17 04:49:33;;;;;;;1.50;0.50;;;21.10;71.00;;;;;;5093559;28;20055;-74
2022/09/17 04:51:58;;;;;;;7.90;0.70;;;21.10;71.00;;;;;;5094831;28;20074;-75
2022/09/17 04:54:24;;;;;;;1.70;0.47;;;21.10;71.00;;;;;;5095081;28;20020;-75
2022/09/17 04:56:50;;;;;;;1.35;0.60;;;21.10;70.90;;;;;;5094926;28;20085;-75
2022/09/17 04:59:15;;;;;;;2.05;0.93;;;21.10;70.90;;;;;;5081440;28;20086;-75
2022/09/17 05:01:42;;;;;;;1.52;0.52;;;21.10;70.90;;;;;;5074501;28;20031;-75
2022/09/17 05:04:08;;;;;;;3.15;1.05;;;21.10;70.90;;;;;;5074536;28;20025;-75
2022/09/17 05:06:34;;;;;;;4.15;0.85;;;21.20;70.90;;;;;;5087045;28;20023;-75
2022/09/17 05:09:00;;;;;;;2.28;1.13;;;21.10;70.90;;;;;;5115019;28;20529;-75
2022/09/17 05:11:27;;;;;;;4.50;0.70;;;21.10;70.90;;;;;;5115215;28;20384;-75
2022/09/17 05:13:52;;;;;;;1.70;0.40;;;21.10;70.90;;;;;;5113663;28;20069;-74
2022/09/17 05:16:18;;;;;;;1.90;0.80;;;21.10;71.30;;;;;;5115051;28;20771;-75
2022/09/17 05:18:44;;;;;;;0.98;0.63;;;21.10;70.90;;;;;;5113847;28;20028;-75
2022/09/17 05:21:09;;;;;;;2.22;0.77;;;21.10;70.90;;;;;;5114785;28;20012;-75
2022/09/17 05:23:35;;;;;;;3.08;0.63;;;21.10;70.90;;;;;;5110624;28;20103;-75
2022/09/17 05:26:00;;;;;;;1.48;0.80;;;21.10;70.90;;;;;;5094399;28;20103;-75
2022/09/17 05:28:27;;;;;;;1.70;0.70;;;21.10;70.90;;;;;;5094499;28;20035;-75
2022/09/17 05:30:52;;;;;;;2.60;0.65;;;21.10;70.90;;;;;;5094319;28;20447;-75
2022/09/17 05:33:19;;;;;;;2.58;0.50;;;21.10;70.90;;;;;;5093945;28;20059;-75
2022/09/17 05:35:44;;;;;;;1.83;0.60;;;21.10;70.90;;;;;;5093055;28;20439;-75
2022/09/17 05:38:10;;;;;;;3.83;0.70;;;21.10;70.90;;;;;;5094083;28;20032;-76
2022/09/17 05:40:39;;;;;;;1.35;0.60;;;21.10;70.90;;;;;;5093932;28;20078;-76
2022/09/17 05:43:05;;;;;;;2.88;0.70;;;21.10;70.90;;;;;;5093975;28;20032;-74
2022/09/17 05:45:32;;;;;;;1.77;0.80;;;21.10;70.70;;;;;;5093100;28;20050;-74
2022/09/17 05:47:58;;;;;;;1.30;0.60;;;21.20;70.60;;;;;;5093673;28;20081;-74
2022/09/17 05:50:25;;;;;;;3.58;1.00;;;21.20;70.70;;;;;;5075824;28;20068;-74
2022/09/17 05:52:50;;;;;;;2.78;0.73;;;21.10;70.60;;;;;;5093733;28;20028;-74
2022/09/17 05:55:17;;;;;;;2.05;0.63;;;21.10;70.70;;;;;;5092508;28;20062;-74
2022/09/17 05:57:43;;;;;;;3.20;0.70;;;21.10;70.70;;;;;;5075206;28;20476;-74
2022/09/17 06:00:10;;;;;;;3.25;0.70;;;21.10;70.70;;;;;;5072287;28;20035;-74
2022/09/17 06:02:35;;;;;;;2.63;0.77;;;21.10;70.70;;;;;;5072454;28;20043;-74
2022/09/17 06:05:02;;;;;;;8.20;0.95;;;21.10;70.90;;;;;;5078561;28;20379;-74
2022/09/17 06:07:28;;;;;;;4.43;0.88;;;21.10;70.70;;;;;;5085656;28;20116;-74
2022/09/17 06:09:54;;;;;;;2.30;0.75;;;21.10;70.70;;;;;;5090162;28;20107;-74
2022/09/17 06:12:19;;;;;;;4.95;1.15;;;21.10;70.70;;;;;;5092180;28;20094;-74
2022/09/17 06:14:45;;;;;;;0.77;0.50;;;21.10;70.70;;;;;;5093468;28;20008;-74
2022/09/17 06:17:11;;;;;;;3.35;1.38;;;21.10;70.70;;;;;;5092980;28;20024;-74
2022/09/17 06:19:36;;;;;;;1.38;0.57;;;21.10;70.70;;;;;;5092325;28;20047;-74
2022/09/17 06:22:04;;;;;;;5.18;0.90;;;21.10;70.70;;;;;;5093248;28;20031;-74
2022/09/17 06:24:29;;;;;;;2.38;0.70;;;21.10;70.70;;;;;;5091393;28;20111;-74
2022/09/17 06:26:55;;;;;;;1.23;0.60;;;21.10;70.70;;;;;;5091708;28;20103;-74
2022/09/17 06:29:21;;;;;;;2.58;0.73;;;21.10;70.70;;;;;;5091596;28;20024;-74
2022/09/17 06:31:47;;;;;;;2.28;0.63;;;21.10;70.70;;;;;;5091644;28;20035;-74
2022/09/17 06:34:13;;;;;;;2.65;0.80;;;21.10;70.70;;;;;;5090591;28;20472;-74
2022/09/17 06:36:38;;;;;;;3.88;0.63;;;21.10;70.70;;;;;;5092452;28;20034;-74
2022/09/17 06:39:04;;;;;;;1.27;0.50;;;21.00;70.70;;;;;;5074129;28;20020;-73
2022/09/17 06:41:30;;;;;;;1.98;0.60;;;21.10;70.70;;;;;;5074749;28;20024;-74
2022/09/17 06:43:56;;;;;;;1.42;0.57;;;21.00;70.70;;;;;;5092906;28;20500;-74
2022/09/17 06:46:21;;;;;;;2.28;0.57;;;21.00;70.70;;;;;;5091425;28;20021;-73
2022/09/17 06:48:47;;;;;;;1.75;0.68;;;21.10;70.70;;;;;;5091541;28;20521;-73
2022/09/17 06:51:13;;;;;;;1.55;0.60;;;21.00;70.70;;;;;;5074761;28;20487;-74
2022/09/17 06:53:39;;;;;;;1.75;0.50;;;21.00;70.70;;;;;;5092854;28;20031;-73
2022/09/17 06:56:05;;;;;;;1.85;0.52;;;21.00;71.60;;;;;;5074750;28;20021;-74
2022/09/17 06:58:31;;;;;;;1.10;0.90;;;21.00;70.60;;;;;;5084223;28;20024;-73
2022/09/17 07:01:00;;;;;;;1.10;0.63;;;21.00;70.60;;;;;;5071031;28;20511;-73
2022/09/17 07:03:26;;;;;;;1.80;0.60;;;21.00;70.50;;;;;;5072476;28;20028;-73
2022/09/17 07:05:52;;;;;;;4.65;0.80;;;21.00;70.50;;;;;;5073106;28;20051;-74
2022/09/17 07:08:18;;;;;;;1.35;0.65;;;21.00;70.60;;;;;;5112881;28;20491;-73
2022/09/17 07:10:43;;;;;;;0.93;0.70;;;21.00;70.60;;;;;;5111730;28;20411;-73
2022/09/17 07:13:09;;;;;;;0.65;0.50;;;21.00;71.60;;;;;;5112736;28;20028;-74
2022/09/17 07:15:35;;;;;;;0.85;0.50;;;21.00;70.60;;;;;;5112739;28;20062;-74
2022/09/17 07:18:07;;;;;;;1.38;0.55;;;21.00;70.60;;;;;;5112659;28;20120;-74
2022/09/17 07:20:32;;;;;;;4.60;0.60;;;21.00;70.70;;;;;;5112950;28;20020;-74
2022/09/17 07:22:58;;;;;;;1.10;0.40;;;21.00;70.60;;;;;;5112723;28;20115;-74
2022/09/17 07:25:25;;;;;;;0.82;0.40;;;21.00;70.60;;;;;;5113026;28;20060;-74
2022/09/17 07:27:51;;;;;;;1.05;0.70;;;21.00;70.60;;;;;;5112590;28;20026;-75
2022/09/17 07:30:17;;;;;;;1.85;0.50;;;21.00;70.60;;;;;;5111248;28;20024;-74
2022/09/17 07:32:42;;;;;;;1.45;0.70;;;20.90;70.60;;;;;;5111485;28;20024;-74
2022/09/17 07:35:08;;;;;;;7.68;0.77;;;21.00;70.60;;;;;;5112675;28;20026;-74
2022/09/17 07:37:33;;;;;;;4.60;0.73;;;21.00;70.60;;;;;;5112687;28;20472;-74
2022/09/17 07:39:59;;;;;;;1.15;0.65;;;21.00;70.70;;;;;;5112622;28;20072;-74
2022/09/17 07:42:26;;;;;;;3.47;0.60;;;21.00;70.70;;;;;;5112297;28;20031;-74
2022/09/17 07:44:52;;;;;;;2.60;0.70;;;21.00;70.70;;;;;;5112743;28;20023;-74
2022/09/17 07:47:18;;;;;;;1.02;0.60;;;21.00;70.70;;;;;;5112333;28;20022;-74
2022/09/17 07:49:44;;;;;;;1.45;0.60;;;20.90;70.60;;;;;;5111311;28;20062;-74
2022/09/17 07:52:10;;;;;;;1.65;0.40;;;20.90;70.70;;;;;;5112497;28;20419;-74
2022/09/17 07:54:38;;;;;;;0.52;0.43;;;20.90;70.70;;;;;;5094348;28;20102;-74
2022/09/17 07:57:04;;;;;;;0.82;0.45;;;20.90;70.60;;;;;;5112185;28;20019;-74
2022/09/17 07:59:29;;;;;;;1.45;0.70;;;20.90;70.70;;;;;;5081542;28;20029;-74
2022/09/17 08:01:55;;;;;;;1.15;0.40;;;21.00;70.70;;;;;;5071830;28;20048;-74
2022/09/17 08:04:21;;;;;;;0.80;0.55;;;20.90;70.70;;;;;;5071759;28;20107;-74
2022/09/17 08:06:47;;;;;;;3.78;0.50;;;20.90;70.70;;;;;;5087944;28;20047;-74
2022/09/17 08:09:14;;;;;;;2.17;0.77;;;20.90;70.80;;;;;;5112190;28;20028;-74
2022/09/17 08:11:39;;;;;;;1.05;0.57;;;20.90;70.70;;;;;;5094120;28;20069;-74
2022/09/17 08:14:05;;;;;;;1.50;0.60;;;20.90;70.80;;;;;;5112198;28;20055;-74
2022/09/17 08:16:32;;;;;;;1.10;0.50;;;20.90;70.70;;;;;;5108776;28;20486;-74
2022/09/17 08:18:57;;;;;;;0.93;0.73;;;20.90;70.70;;;;;;5093013;28;20476;-74
2022/09/17 08:21:23;;;;;;;1.55;0.60;;;20.90;70.80;;;;;;5091735;28;20027;-74
2022/09/17 08:23:49;;;;;;;0.95;0.63;;;20.90;70.80;;;;;;5073741;28;20097;-74
2022/09/17 08:26:20;;;;;;;0.63;0.60;;;20.90;71.80;;;;;;5091531;28;20017;-74
2022/09/17 08:28:47;;;;;;;0.70;0.50;;;20.90;70.80;;;;;;5094575;28;20403;-74
2022/09/17 08:31:13;;;;;;;1.17;0.57;;;20.90;70.80;;;;;;5094329;28;20081;-74
2022/09/17 08:33:39;;;;;;;0.60;0.40;;;20.90;70.90;;;;;;5095386;28;20028;-74
2022/09/17 08:36:05;;;;;;;2.38;0.57;;;20.90;70.90;;;;;;5094244;28;20430;-74
2022/09/17 08:38:32;;;;;;;0.95;0.60;;;20.90;70.90;;;;;;5093825;28;20067;-74
2022/09/17 08:41:13;;;;;;;1.17;0.50;;;20.90;70.90;;;;;;5093975;28;20008;-74
2022/09/17 08:43:48;;;;;;;1.17;0.60;;;20.90;70.90;;;;;;5095240;28;20077;-74
2022/09/17 08:46:14;;;;;;;0.43;0.43;;;20.90;70.90;;;;;;5095481;28;20016;-74
2022/09/17 08:48:47;;;;;;;0.50;0.38;;;20.90;70.90;;;;;;5095074;28;20032;-73
2022/09/17 08:51:32;;;;;;;1.30;0.50;;;20.90;70.90;;;;;;5077228;28;20069;-73
2022/09/17 08:54:18;;;;;;;0.73;0.65;;;20.90;71.00;;;;;;5012980;28;20046;-74
2022/09/17 08:56:45;;;;;;;1.85;0.70;;;20.90;70.90;;;;;;4981929;28;20454;-74
2022/09/17 08:59:10;;;;;;;1.05;0.60;;;20.90;71.00;;;;;;4980029;28;20041;-74
2022/09/17 09:01:45;;;;;;;1.10;0.60;;;20.90;71.00;;;;;;5012703;28;20147;-74
2022/09/17 09:04:33;;;;;;;4.68;0.82;;;20.90;70.90;;;;;;5012766;28;20034;-74
2022/09/17 09:07:05;;;;;;;1.05;0.55;;;20.90;70.90;;;;;;5006323;28;20033;-74
2022/09/17 09:09:35;;;;;;;1.23;0.60;;;20.90;71.00;;;;;;4998315;28;20030;-74
2022/09/17 09:12:08;;;;;;;1.38;0.45;;;20.90;71.00;;;;;;4994430;28;20065;-74
2022/09/17 09:14:53;;;;;;;0.73;0.40;;;20.90;71.00;;;;;;4996255;28;20058;-74
2022/09/17 09:17:20;;;;;;;2.78;0.43;;;20.90;71.00;;;;;;4981903;28;20037;-74
2022/09/17 09:19:45;;;;;;;1.80;0.55;;;20.90;71.10;;;;;;4996142;28;20374;-75
2022/09/17 09:22:32;;;;;;;0.65;0.30;;;20.90;71.00;;;;;;5012598;28;20038;-74
2022/09/17 09:25:17;;;;;;;3.60;0.43;;;20.90;71.00;;;;;;5012128;28;20045;-75
2022/09/17 09:28:05;;;;;;;0.65;0.38;;;20.90;71.10;;;;;;5012316;28;20026;-74
2022/09/17 09:30:41;;;;;;;1.38;0.52;;;20.90;71.00;;;;;;5026937;28;20047;-74
2022/09/17 09:33:14;;;;;;;2.80;0.85;;;20.90;71.10;;;;;;5093181;28;20024;-73
2022/09/17 09:35:43;;;;;;;1.60;0.40;;;20.90;71.10;;;;;;5076863;28;20438;-74
2022/09/17 09:38:17;;;;;;;2.55;0.65;;;20.90;71.10;;;;;;5092090;28;20073;-74
2022/09/17 09:40:46;;;;;;;0.63;0.45;;;20.90;71.20;;;;;;5092714;28;20031;-74
2022/09/17 09:43:24;;;;;;;2.22;0.50;;;20.90;71.20;;;;;;5094101;28;20024;-74
2022/09/17 09:46:11;;;;;;;0.73;0.50;;;20.90;71.20;;;;;;5093072;28;20165;-74
2022/09/17 09:49:05;;;;;;;1.45;0.38;;;20.90;71.30;;;;;;5093814;28;20034;-74
2022/09/17 09:51:58;;;;;;;1.15;0.55;;;20.90;71.20;;;;;;5092832;28;20036;-74
2022/09/17 09:54:27;;;;;;;0.90;0.57;;;20.90;71.20;;;;;;5092430;28;20106;-74
2022/09/17 09:56:58;;;;;;;0.47;0.40;;;20.80;71.20;;;;;;5092948;28;20089;-74
2022/09/17 09:59:25;;;;;;;2.85;0.50;;;20.90;71.30;;;;;;5077986;28;20047;-74
2022/09/17 10:01:50;;;;;;;1.02;0.47;;;20.90;71.20;;;;;;5072233;28;20043;-74
2022/09/17 10:04:23;;;;;;;1.13;0.50;;;20.90;71.30;;;;;;5073911;28;20012;-74
2022/09/17 10:06:51;;;;;;;0.57;0.47;;;20.80;72.20;;;;;;5092511;28;20016;-74
2022/09/17 10:09:20;;;;;;;0.40;0.40;;;20.80;71.20;;;;;;5092116;28;20094;-74
2022/09/17 10:11:58;;;;;;;0.43;0.40;;;20.80;71.20;;;;;;5092445;28;20023;-74
2022/09/17 10:14:26;;;;;;;0.55;0.40;;;20.90;71.20;;;;;;5093335;28;20103;-74
2022/09/17 10:17:19;;;;;;;1.70;0.70;;;20.90;71.20;;;;;;5092375;28;20073;-74
2022/09/17 10:20:07;;;;;;;1.67;0.50;;;20.90;71.20;;;;;;5093234;28;20553;-74
2022/09/17 10:22:38;;;;;;;0.73;0.43;;;20.90;71.30;;;;;;5092222;28;20032;-74
2022/09/17 10:25:05;;;;;;;2.50;0.60;;;20.90;71.30;;;;;;5075389;28;20024;-74
2022/09/17 10:27:31;;;;;;;1.88;0.55;;;20.80;71.20;;;;;;5091947;28;20024;-74
2022/09/17 10:30:14;;;;;;;0.60;0.40;;;20.90;71.30;;;;;;5092183;28;20024;-74
2022/09/17 10:32:39;;;;;;;;;;;20.80;71.20;;;;;;5075779;28;20110;-74
2022/09/17 10:35:14;;;;;;;0.82;0.50;;;20.80;71.20;;;;;;5091900;28;20332;-74
2022/09/17 10:37:47;;;;;;;0.90;0.50;;;20.90;71.20;;;;;;5092868;28;20110;-74
2022/09/17 10:40:19;;;;;;;0.63;0.50;;;20.80;71.20;;;;;;5091897;28;20071;-74
2022/09/17 10:42:45;;;;;;;0.52;0.28;;;20.90;71.30;;;;;;5093089;28;20438;-74
2022/09/17 10:45:28;;;;;;;0.75;0.50;;;20.90;71.30;;;;;;5092723;28;20032;-74
2022/09/17 10:47:54;;;;;;;0.77;0.52;;;20.90;71.20;;;;;;5091862;28;20035;-74
2022/09/17 10:50:34;;;;;;;2.35;0.60;;;20.90;71.30;;;;;;5074562;28;20051;-74
2022/09/17 10:53:01;;;;;;;1.30;0.40;;;20.90;71.30;;;;;;5076084;28;20020;-74
2022/09/17 10:55:36;;;;;;;2.22;0.80;;;20.90;71.30;;;;;;5074824;28;20095;-74
2022/09/17 10:58:07;;;;;;;0.47;0.40;;;20.80;71.20;;;;;;5089720;28;20418;-74
2022/09/17 11:00:54;;;;;;;0.90;0.52;;;20.90;71.30;;;;;;5072351;28;20020;-74
2022/09/17 11:03:44;;;;;;;0.90;0.30;;;20.80;71.20;;;;;;5072373;28;20025;-74
2022/09/17 11:06:29;;;;;;;0.93;0.30;;;20.90;71.30;;;;;;5078950;28;20019;-74
2022/09/17 11:09:01;;;;;;;0.73;0.50;;;20.90;71.20;;;;;;5095459;28;20038;-74
2022/09/17 11:11:45;;;;;;;0.80;0.40;;;20.80;71.20;;;;;;5111909;28;20466;-75
2022/09/17 11:14:23;;;;;;;2.08;0.40;;;20.80;71.10;;;;;;5080026;28;20021;-75
2022/09/17 11:17:18;;;;;;;0.47;0.38;;;20.90;71.30;;;;;;5093033;28;20031;-74
2022/09/17 11:20:11;;;;;;;0.68;0.45;;;20.90;71.20;;;;;;5090423;28;20484;-74
2022/09/17 11:23:04;;;;;;;0.65;0.47;;;20.80;71.20;;;;;;5071238;28;20245;-74
2022/09/17 11:25:36;;;;;;;1.08;0.52;;;20.90;71.30;;;;;;5084037;28;20020;-74
2022/09/17 11:28:07;;;;;;;0.45;0.45;;;20.90;71.30;;;;;;5092097;28;20024;-74
2022/09/17 11:31:04;;;;;;;1.33;0.40;;;20.90;71.30;;;;;;5091462;28;20508;-74
2022/09/17 11:33:58;;;;;;;0.75;0.40;;;20.90;71.30;;;;;;5088270;28;20051;-74
2022/09/17 11:36:28;;;;;;;0.32;0.32;;;20.90;71.40;;;;;;5091222;28;20043;-74
2022/09/17 11:38:56;;;;;;;0.70;0.55;;;20.90;71.40;;;;;;5091621;28;20027;-74
2022/09/17 11:41:26;;;;;;;2.20;0.50;;;20.80;68.60;;;;;;5091520;28;20013;-74
2022/09/17 11:44:08;;;;;;;0.40;0.40;;;20.80;66.40;;;;;;5091418;28;20415;-74
2022/09/17 11:46:57;;;;;;;1.13;0.45;;;20.80;64.70;;;;;;5090419;28;20035;-74
2022/09/17 11:49:38;;;;;;;0.57;0.20;;;20.70;63.40;;;;;;5079872;28;20519;-74
2022/09/17 11:52:20;;;;;;;1.02;0.40;;;20.70;63.30;;;;;;5070091;28;20021;-74
2022/09/17 11:54:46;;;;;;;0.70;0.40;;;20.70;63.40;;;;;;5070806;28;20051;-75
2022/09/17 11:57:11;;;;;;;0.35;0.32;;;20.70;62.60;;;;;;5071799;28;20028;-74
2022/09/17 11:59:59;;;;;;;3.03;0.47;;;20.60;60.00;;;;;;5071355;28;20546;-74
2022/09/17 12:02:49;;;;;;;0.88;0.40;;;20.50;56.70;;;;;;5066862;28;20508;-74
2022/09/17 12:05:30;;;;;;;0.98;0.40;;;20.40;57.20;;;;;;5075477;28;20036;-75
2022/09/17 12:08:02;;;;;;;2.15;0.40;;;20.40;57.20;;;;;;5110742;28;20019;-74
2022/09/17 12:10:45;;;;;;;2.67;0.50;;;20.30;56.60;;;;;;5116280;28;20024;-74
2022/09/17 12:13:32;;;;;;;0.55;0.30;;;20.30;57.10;;;;;;5116231;28;20153;-74
2022/09/17 12:16:10;;;;;;;0.73;0.40;;;20.30;58.10;;;;;;5114778;28;20024;-75
2022/09/17 12:19:06;;;;;;;1.55;0.30;;;20.40;57.00;;;;;;5114593;28;20020;-74
2022/09/17 12:21:44;;;;;;;3.15;0.63;;;20.40;57.30;;;;;;5115920;28;20139;-75
2022/09/17 12:24:27;;;;;;;2.47;0.60;;;20.40;57.20;;;;;;5099050;28;20038;-74
2022/09/17 12:27:08;;;;;;;1.42;0.40;;;20.30;56.60;;;;;;5114705;28;20020;-75
2022/09/17 12:29:39;;;;;;;1.05;0.40;;;20.30;56.20;;;;;;5114887;28;20383;-75
2022/09/17 12:32:16;;;;;;;1.02;0.55;;;20.30;56.70;;;;;;5115902;28;20104;-74
2022/09/17 12:35:15;;;;;;;2.67;0.70;;;20.30;56.80;;;;;;5114422;28;20094;-76
2022/09/17 12:38:18;;;;;;;1.58;0.70;;;20.30;57.10;;;;;;5115456;28;20028;-73
2022/09/17 12:41:01;;;;;;;2.20;0.40;;;20.40;58.20;;;;;;5115577;28;20103;-73
2022/09/17 12:43:46;;;;;;;2.85;0.50;;;20.40;55.70;;;;;;5115537;28;20023;-73
2022/09/17 12:46:45;;;;;;;0.80;0.40;;;20.30;55.70;;;;;;5115652;28;20395;-74
2022/09/17 12:49:56;;;;;;;1.38;0.43;;;20.30;56.10;;;;;;5115089;28;20052;-73
2022/09/17 12:52:57;;;;;;;0.52;0.32;;;20.30;56.30;;;;;;5028302;28;20064;-74
2022/09/17 12:55:41;;;;;;;1.05;0.40;;;20.30;56.80;;;;;;5016162;28;20026;-74
2022/09/17 12:58:46;;;;;;;1.00;0.40;;;20.30;57.20;;;;;;5033052;28;20105;-76
2022/09/17 13:01:42;;;;;;;1.00;0.40;;;20.40;58.50;;;;;;5010688;28;20116;-75
2022/09/17 13:04:25;;;;;;;1.27;0.40;;;20.70;60.40;;;;;;5032104;28;20104;-74
2022/09/17 13:07:03;;;;;;;;;;;20.90;61.50;;;;;;5001109;28;20021;-74
2022/09/17 13:09:37;;;;;;;0.98;0.30;;;21.00;61.30;;;;;;5032687;28;19905;-74
2022/09/17 13:12:41;;;;;;;0.68;0.40;;;21.10;61.40;;;;;;5032239;28;20048;-74
2022/09/17 13:15:30;;;;;;;1.52;0.52;;;21.20;61.30;;;;;;5022073;28;20048;-74